KOTM/OTM METAR and TAF weather

Enter ICAO airport designator
Station Type Date Time Source
KOTM METAR 2021/09/20 03:53 UTC NOAA

KOTM 200353Z AUTO 16007KT 10SM CLR 23/18 A2989 RMK AO2 SLP114 T02330183 $


Station Type Date Time Source
KOTM Decoded METAR 2021/09/20 03:53 UTC NOAA

OTTUMWA INDUSTRIAL AIRPORT, IA, United States (KOTM) 41-06N 092-27W 256M
Sep 19, 2021 - 11:53 PM EDT / 2021.09.20 0353 UTC
Wind: from the SSE (160 degrees) at 8 MPH (7 KT):0
Visibility: 10 mile(s):0
Sky conditions: clear
Temperature: 73.9 F (23.3 C)
Dew Point: 64.9 F (18.3 C)
Relative Humidity: 73%
Pressure (altimeter): 29.89 in. Hg (1012 hPa)
ob: KOTM 200353Z AUTO 16007KT 10SM CLR 23/18 A2989 RMK AO2 SLP114 T02330183
cycle: 4

Station Type Date Time Source
KOTM TAF 2021/09/19 18:36 UTC NOAA

TAF KOTM 191735Z 1918/2018 17010G18KT P6SM FEW040
FM200100 15006KT P6SM SKC
FM201300 16010G21KT P6SM BKN020

Example: see airport list